Time;durP1;ratioP1;P1;durP2;ratioP2;P2;SDS_P1;SDS_P2;PMS_P1;PMS_P2;Temp;Humidity;BMP_temperature;BMP_pressure;BME280_temperature;BME280_humidity;BME280_pressure;Samples;Min_cycle;Max_cycle;Signal;HPM_P1;HPM_P2
2023/03/12 00:00:16;;;;;;;69.80;28.17;;;14.80;99.90;;;;;;5030894;28;20061;-78
2023/03/12 00:03:20;;;;;;;75.78;34.25;;;;;;;;;;5030784;28;20052;-78
2023/03/12 00:06:24;;;;;;;77.28;34.30;;;;;;;;;;5030722;28;20397;-78
2023/03/12 00:09:29;;;;;;;70.35;31.73;;;;;;;;;;5030653;28;20049;-78
2023/03/12 00:12:33;;;;;;;75.40;32.38;;;;;;;;;;5030474;28;20048;-79
2023/03/12 00:15:38;;;;;;;72.47;31.63;;;13.60;99.90;;;;;;5030593;28;20040;-79
2023/03/12 00:18:42;;;;;;;81.43;32.53;;;13.70;99.90;;;;;;5029529;28;20045;-79
2023/03/12 00:21:46;;;;;;;79.63;33.13;;;12.90;99.90;;;;;;5030698;28;20049;-79
2023/03/12 00:24:55;;;;;;;80.13;34.35;;;12.90;99.90;;;;;;5030880;28;20167;-78
2023/03/12 00:27:59;;;;;;;84.70;33.63;;;12.80;99.90;;;;;;5030605;28;20068;-78
2023/03/12 00:31:13;;;;;;;76.85;35.67;;;13.10;99.90;;;;;;5030433;28;20076;-78
2023/03/12 00:34:17;;;;;;;80.22;35.10;;;13.00;99.90;;;;;;5030449;28;20049;-77
2023/03/12 00:37:21;;;;;;;68.10;33.17;;;12.90;99.90;;;;;;5030361;28;20504;-78
2023/03/12 00:40:26;;;;;;;81.25;36.72;;;;;;;;;;5053151;28;20076;-78
2023/03/12 00:43:30;;;;;;;73.72;34.72;;;12.70;99.90;;;;;;5034410;28;20049;-78
2023/03/12 00:46:34;;;;;;;68.13;33.95;;;12.30;99.90;;;;;;5034076;28;20409;-78
2023/03/12 00:49:38;;;;;;;81.38;33.55;;;12.50;99.90;;;;;;5034220;28;20589;-78
2023/03/12 00:52:42;;;;;;;71.97;36.03;;;12.40;99.90;;;;;;5033384;28;20044;-78
2023/03/12 00:55:47;;;;;;;80.72;37.72;;;;;;;;;;5033107;28;20500;-78
2023/03/12 00:58:51;;;;;;;88.88;39.85;;;12.20;99.90;;;;;;5033879;28;20588;-77
2023/03/12 01:01:55;;;;;;;84.22;42.42;;;12.40;99.90;;;;;;5021871;28;20052;-78
2023/03/12 01:04:59;;;;;;;106.30;56.28;;;12.40;99.90;;;;;;5033717;28;20068;-77
2023/03/12 01:08:04;;;;;;;97.22;52.97;;;12.40;99.90;;;;;;5032964;28;20060;-77
2023/03/12 01:11:15;;;;;;;85.60;46.03;;;12.50;99.90;;;;;;5032864;28;20045;-78
2023/03/12 01:14:20;;;;;;;89.40;51.72;;;12.60;99.90;;;;;;5033833;28;20389;-78
2023/03/12 01:17:25;;;;;;;111.57;53.38;;;12.50;99.90;;;;;;5033004;28;20393;-78
2023/03/12 01:20:29;;;;;;;96.65;43.10;;;;;;;;;;5032595;28;20040;-78
2023/03/12 01:23:33;;;;;;;94.88;47.42;;;;;;;;;;5032856;28;20048;-78
2023/03/12 01:26:38;;;;;;;96.22;48.67;;;;;;;;;;5033517;28;20052;-78
2023/03/12 01:29:42;;;;;;;99.10;51.35;;;11.80;99.90;;;;;;5033418;28;20148;-77
2023/03/12 01:32:46;;;;;;;95.43;44.28;;;12.20;99.90;;;;;;5033573;28;20496;-78
2023/03/12 01:35:50;;;;;;;73.15;38.78;;;12.20;99.90;;;;;;5033267;28;20064;-78
2023/03/12 01:38:56;;;;;;;76.05;31.17;;;12.40;99.90;;;;;;5032977;28;20044;-77
2023/03/12 01:42:01;;;;;;;62.88;28.27;;;12.50;99.90;;;;;;5032367;28;20156;-77
2023/03/12 01:45:05;;;;;;;69.47;30.00;;;12.40;99.90;;;;;;5032313;28;20048;-78
2023/03/12 01:48:11;;;;;;;76.18;28.77;;;12.60;99.90;;;;;;5044023;28;20080;-78
2023/03/12 01:51:17;;;;;;;67.47;26.80;;;12.50;99.90;;;;;;5032970;28;20060;-78
2023/03/12 01:54:22;;;;;;;60.08;26.35;;;;;;;;;;5032202;28;20041;-78
2023/03/12 01:57:37;;;;;;;50.28;24.30;;;12.70;99.90;;;;;;5033037;28;20040;-78
2023/03/12 02:00:41;;;;;;;59.53;24.42;;;;;;;;;;5055141;28;20048;-78
2023/03/12 02:03:49;;;;;;;52.28;22.73;;;12.10;99.90;;;;;;5032040;28;20496;-78
2023/03/12 02:07:02;;;;;;;65.05;28.08;;;12.20;99.90;;;;;;5032076;28;20515;-78
2023/03/12 02:10:07;;;;;;;63.55;27.13;;;12.10;99.90;;;;;;5032728;28;20065;-78
2023/03/12 02:13:12;;;;;;;58.45;26.88;;;11.90;99.90;;;;;;5032588;28;20052;-78
2023/03/12 02:16:22;;;;;;;56.72;23.95;;;12.10;99.90;;;;;;5031736;28;20362;-77
2023/03/12 02:19:57;;;;;;;64.05;27.10;;;12.20;99.90;;;;;;5031581;28;20049;-78
2023/03/12 02:23:04;;;;;;;62.80;28.23;;;12.00;99.90;;;;;;5031680;28;20393;-78
2023/03/12 02:26:09;;;;;;;55.20;26.92;;;11.70;99.90;;;;;;5032134;28;20048;-78
2023/03/12 02:29:16;;;;;;;55.08;26.48;;;11.90;99.90;;;;;;5031595;28;20040;-78
2023/03/12 02:32:29;;;;;;;58.08;27.17;;;12.00;99.90;;;;;;5032092;28;20041;-78
2023/03/12 02:35:33;;;;;;;60.38;26.15;;;;;;;;;;5032223;28;20409;-78
2023/03/12 02:38:49;;;;;;;59.72;25.05;;;11.90;99.90;;;;;;5031139;28;20049;-78
2023/03/12 02:41:56;;;;;;;62.50;25.58;;;12.00;99.90;;;;;;5031400;28;20056;-78
2023/03/12 02:45:02;;;;;;;58.45;23.67;;;;;;;;;;5031262;28;20064;-78
2023/03/12 02:48:08;;;;;;;57.85;22.98;;;12.30;99.90;;;;;;5032045;28;20068;-78
2023/03/12 02:51:12;;;;;;;52.67;24.33;;;12.00;99.90;;;;;;5031917;28;20112;-78
2023/03/12 02:54:19;;;;;;;47.50;26.50;;;10.60;99.90;;;;;;5031688;28;20485;-78
2023/03/12 02:57:22;;;;;;;60.88;25.20;;;13.20;99.90;;;;;;5031337;28;20044;-78
2023/03/12 03:00:27;;;;;;;60.70;27.30;;;;;;;;;;5031717;28;20056;-79
2023/03/12 03:03:32;;;;;;;60.72;26.17;;;;;;;;;;5030026;28;20037;-79
2023/03/12 03:06:39;;;;;;;59.00;24.88;;;11.50;99.90;;;;;;5030727;28;20052;-78
2023/03/12 03:09:43;;;;;;;60.78;24.30;;;10.40;99.90;;;;;;5030519;28;20053;-78
2023/03/12 03:12:47;;;;;;;56.55;19.00;;;11.60;99.90;;;;;;5031445;28;20041;-78
2023/03/12 03:15:52;;;;;;;52.28;19.33;;;11.50;99.90;;;;;;5030676;28;20041;-79
2023/03/12 03:18:56;;;;;;;59.08;20.20;;;13.60;99.90;;;;;;5030395;28;20056;-78
2023/03/12 03:22:00;;;;;;;56.50;18.88;;;11.50;99.90;;;;;;5031167;28;20040;-78
2023/03/12 03:25:05;;;;;;;50.95;20.13;;;11.60;99.90;;;;;;5030428;28;20037;-78
2023/03/12 03:28:09;;;;;;;58.42;20.58;;;11.50;99.90;;;;;;5030380;28;20520;-78
2023/03/12 03:31:14;;;;;;;51.20;21.65;;;15.50;99.90;;;;;;5031417;28;20458;-77
2023/03/12 03:34:19;;;;;;;49.35;21.83;;;11.50;99.90;;;;;;5054388;28;20048;-78
2023/03/12 03:37:23;;;;;;;57.20;21.40;;;11.50;99.90;;;;;;5031144;28;20179;-77
2023/03/12 03:40:28;;;;;;;55.78;20.27;;;10.60;99.90;;;;;;5041660;28;20045;-77
2023/03/12 03:43:32;;;;;;;56.15;19.88;;;13.00;99.90;;;;;;5019071;28;20045;-77
2023/03/12 03:46:37;;;;;;;52.42;18.92;;;;;;;;;;5041741;28;20048;-77
2023/03/12 03:49:44;;;;;;;53.55;19.52;;;;;;;;;;5030473;28;20044;-77
2023/03/12 03:52:49;;;;;;;48.38;19.05;;;;;;;;;;5030338;28;20060;-77
2023/03/12 03:55:53;;;;;;;51.30;20.05;;;11.60;99.90;;;;;;5030938;28;20040;-77
2023/03/12 03:58:57;;;;;;;58.30;20.98;;;12.50;99.90;;;;;;5030237;28;20040;-78
2023/03/12 04:02:01;;;;;;;52.45;20.05;;;11.50;99.90;;;;;;5029739;28;20041;-78
2023/03/12 04:05:07;;;;;;;69.47;22.67;;;11.20;99.90;;;;;;5029730;28;20052;-78
2023/03/12 04:08:12;;;;;;;58.05;21.33;;;11.10;99.90;;;;;;5030002;28;20052;-78
2023/03/12 04:11:19;;;;;;;48.25;19.65;;;11.10;99.90;;;;;;5029714;28;20048;-78
2023/03/12 04:14:22;;;;;;;56.75;19.05;;;11.50;99.90;;;;;;5030160;28;20040;-78
2023/03/12 04:17:27;;;;;;;66.20;18.13;;;11.30;99.90;;;;;;5029779;28;20109;-78
2023/03/12 04:20:33;;;;;;;42.72;16.25;;;;;;;;;;5029720;28;20083;-78
2023/03/12 04:23:38;;;;;;;50.78;15.80;;;11.40;99.90;;;;;;5018675;28;20041;-78
2023/03/12 04:26:43;;;;;;;43.28;16.45;;;11.40;99.90;;;;;;5029484;28;20234;-78
2023/03/12 04:29:47;;;;;;;46.78;15.77;;;;;;;;;;5030034;28;20421;-78
2023/03/12 04:32:53;;;;;;;36.20;15.20;;;11.20;99.90;;;;;;5029580;28;20049;-78
2023/03/12 04:35:57;;;;;;;42.42;15.82;;;10.20;99.90;;;;;;5029543;28;20072;-78
2023/03/12 04:39:05;;;;;;;48.17;16.20;;;11.40;99.90;;;;;;5029476;28;20053;-78
2023/03/12 04:42:10;;;;;;;45.35;14.52;;;11.50;99.90;;;;;;5029334;28;20080;-78
2023/03/12 04:45:15;;;;;;;44.03;15.82;;;11.70;99.90;;;;;;5029413;28;20041;-77
2023/03/12 04:48:23;;;;;;;42.78;15.52;;;;;;;;;;5029706;28;20048;-78
2023/03/12 04:51:28;;;;;;;52.90;16.92;;;11.30;99.90;;;;;;5029684;28;20045;-77
2023/03/12 04:54:33;;;;;;;50.35;19.85;;;11.40;99.90;;;;;;5040578;28;20056;-78
2023/03/12 04:57:37;;;;;;;52.95;20.95;;;11.30;99.90;;;;;;5030501;28;20138;-77
2023/03/12 05:00:42;;;;;;;49.97;21.27;;;11.30;99.90;;;;;;5052551;28;20043;-78
2023/03/12 05:03:46;;;;;;;59.30;26.58;;;11.30;99.90;;;;;;5030300;28;20052;-78
2023/03/12 05:06:51;;;;;;;66.68;28.38;;;10.90;99.90;;;;;;5029207;28;20045;-78
2023/03/12 05:09:55;;;;;;;62.55;24.70;;;;;;;;;;5029449;28;20048;-77
2023/03/12 05:12:59;;;;;;;56.92;24.77;;;11.10;99.90;;;;;;5029157;28;20398;-77
2023/03/12 05:16:04;;;;;;;56.55;23.88;;;11.50;99.90;;;;;;5029916;28;20036;-78
2023/03/12 05:19:09;;;;;;;50.78;23.05;;;;;;;;;;5029468;28;20417;-77
2023/03/12 05:22:13;;;;;;;56.15;22.45;;;11.20;99.90;;;;;;5029250;28;20052;-78
2023/03/12 05:25:17;;;;;;;47.60;21.25;;;;;;;;;;5052026;28;20044;-77
2023/03/12 05:28:26;;;;;;;46.17;19.00;;;11.20;99.90;;;;;;5032733;28;20512;-77
2023/03/12 05:31:35;;;;;;;39.90;18.60;;;;;;;;;;5032958;28;20048;-78
2023/03/12 05:34:41;;;;;;;44.90;20.58;;;11.20;99.90;;;;;;5021293;28;20045;-78
2023/03/12 05:37:45;;;;;;;57.05;21.83;;;11.20;99.90;;;;;;5033613;28;20393;-78
2023/03/12 05:40:55;;;;;;;49.92;22.20;;;11.40;99.90;;;;;;5043472;28;20064;-78
2023/03/12 05:44:00;;;;;;;59.03;20.70;;;;;;;;;;5032463;28;20040;-77
2023/03/12 05:47:05;;;;;;;50.45;24.48;;;;;;;;;;5032230;28;20052;-77
2023/03/12 05:50:11;;;;;;;46.38;23.10;;;11.50;99.90;;;;;;5032442;28;20152;-77
2023/03/12 05:53:16;;;;;;;52.75;23.45;;;11.80;99.90;;;;;;5055317;28;20040;-77
2023/03/12 05:56:21;;;;;;;53.65;24.77;;;12.30;99.90;;;;;;5043685;28;20052;-77
2023/03/12 05:59:25;;;;;;;57.30;24.35;;;13.10;99.90;;;;;;5033495;28;20044;-78
2023/03/12 06:02:30;;;;;;;50.60;21.73;;;13.90;99.10;;;;;;5032335;28;20056;-78
2023/03/12 06:05:35;;;;;;;48.20;20.00;;;14.50;98.10;;;;;;5032235;28;20048;-78
2023/03/12 06:08:40;;;;;;;40.15;19.13;;;15.10;97.10;;;;;;5033118;28;20072;-78
2023/03/12 06:11:44;;;;;;;39.22;19.02;;;18.70;96.90;;;;;;5032972;28;20045;-78
2023/03/12 06:14:48;;;;;;;40.38;18.73;;;16.20;95.10;;;;;;5032042;28;20389;-78
2023/03/12 06:17:52;;;;;;;38.83;20.05;;;16.70;94.20;;;;;;5032077;28;20397;-77
2023/03/12 06:21:11;;;;;;;36.20;19.00;;;16.70;93.40;;;;;;5032212;28;20382;-77
2023/03/12 06:24:16;;;;;;;42.88;20.08;;;;;;;;;;5031818;28;20041;-77
2023/03/12 06:27:24;;;;;;;60.83;27.02;;;17.60;93.00;;;;;;5031812;28;20072;-77
2023/03/12 06:30:28;;;;;;;48.28;26.08;;;18.20;92.10;;;;;;5032798;28;20065;-77
2023/03/12 06:33:32;;;;;;;45.30;22.48;;;18.40;91.80;;;;;;5032957;28;20050;-76
2023/03/12 06:36:36;;;;;;;41.30;22.15;;;18.40;92.10;;;;;;5032692;28;20397;-77
2023/03/12 06:39:41;;;;;;;44.15;21.25;;;18.60;92.00;;;;;;5031883;28;20056;-77
2023/03/12 06:42:44;;;;;;;43.22;19.73;;;18.70;91.70;;;;;;5031620;28;20048;-77
2023/03/12 06:45:48;;;;;;;36.92;16.67;;;18.70;91.70;;;;;;5032657;28;20362;-76
2023/03/12 06:48:53;;;;;;;42.25;15.85;;;18.50;92.20;;;;;;5032254;28;20056;-77
2023/03/12 06:51:56;;;;;;;39.25;14.35;;;18.60;92.00;;;;;;5032276;28;20048;-77
2023/03/12 06:55:00;;;;;;;32.22;13.75;;;18.50;91.90;;;;;;5032364;28;20056;-77
2023/03/12 06:58:04;;;;;;;33.42;13.52;;;18.50;91.90;;;;;;5032118;28;20040;-77
2023/03/12 07:01:09;;;;;;;39.63;15.55;;;18.50;92.00;;;;;;5031958;28;20069;-78
2023/03/12 07:04:13;;;;;;;46.17;18.40;;;18.50;91.80;;;;;;5031260;28;20060;-77
2023/03/12 07:07:18;;;;;;;48.63;17.58;;;18.50;91.90;;;;;;5031874;28;20052;-77
2023/03/12 07:10:23;;;;;;;44.97;17.85;;;18.50;91.90;;;;;;5031929;28;20056;-78
2023/03/12 07:13:27;;;;;;;33.88;15.52;;;18.50;91.90;;;;;;5032417;28;20049;-79
2023/03/12 07:16:31;;;;;;;39.20;16.42;;;18.40;92.00;;;;;;5032884;28;20053;-79
2023/03/12 07:19:35;;;;;;;41.92;14.82;;;18.30;92.20;;;;;;5033064;28;20047;-79
2023/03/12 07:22:39;;;;;;;40.88;14.68;;;18.40;92.50;;;;;;5032806;28;20048;-79
2023/03/12 07:25:44;;;;;;;48.60;16.10;;;18.80;92.40;;;;;;5032446;28;20052;-79
2023/03/12 07:28:48;;;;;;;48.13;16.75;;;18.70;91.60;;;;;;5032740;28;20068;-79
2023/03/12 07:31:52;;;;;;;49.58;17.27;;;18.70;92.00;;;;;;5032723;28;20072;-78
2023/03/12 07:34:56;;;;;;;43.33;16.27;;;18.80;91.80;;;;;;5031670;28;20056;-79
2023/03/12 07:38:01;;;;;;;43.80;16.70;;;19.10;91.50;;;;;;5031584;28;20041;-79
2023/03/12 07:41:05;;;;;;;48.67;16.30;;;19.20;91.30;;;;;;5031494;28;20053;-78
2023/03/12 07:44:09;;;;;;;40.75;15.32;;;19.40;90.90;;;;;;5031365;28;20040;-79
2023/03/12 07:47:13;;;;;;;39.40;14.98;;;19.50;90.90;;;;;;5031417;28;20056;-77
2023/03/12 07:50:18;;;;;;;46.50;15.63;;;19.50;90.90;;;;;;5030905;28;20377;-77
2023/03/12 07:53:22;;;;;;;41.47;15.90;;;19.60;90.90;;;;;;5031349;28;20394;-77
2023/03/12 07:56:26;;;;;;;43.17;14.63;;;19.60;90.90;;;;;;5030969;28;20045;-75
2023/03/12 07:59:30;;;;;;;45.90;16.33;;;19.90;91.20;;;;;;5029290;28;20049;-77
2023/03/12 08:02:34;;;;;;;44.38;15.10;;;20.00;90.70;;;;;;5029444;28;20053;-77
2023/03/12 08:05:38;;;;;;;40.25;15.30;;;20.20;90.70;;;;;;5030478;28;20053;-75
2023/03/12 08:08:42;;;;;;;45.03;16.63;;;20.30;90.20;;;;;;5031037;28;20056;-78
2023/03/12 08:11:46;;;;;;;47.08;16.67;;;20.40;90.10;;;;;;5031107;28;20044;-78
2023/03/12 08:14:50;;;;;;;33.40;11.95;;;20.60;89.90;;;;;;5030618;28;20080;-75
2023/03/12 08:17:54;;;;;;;30.58;11.23;;;20.70;88.90;;;;;;5030923;28;20484;-76
2023/03/12 08:20:57;;;;;;;37.05;11.57;;;20.90;88.90;;;;;;5030850;28;20060;-77
2023/03/12 08:24:02;;;;;;;35.85;9.88;;;20.90;89.10;;;;;;5031572;28;20044;-76
2023/03/12 08:27:06;;;;;;;28.02;8.05;;;20.90;88.70;;;;;;5031951;28;20052;-76
2023/03/12 08:30:11;;;;;;;22.02;8.75;;;20.90;88.30;;;;;;5031601;28;20045;-77
2023/03/12 08:33:15;;;;;;;29.85;8.45;;;20.70;87.30;;;;;;5036117;28;20052;-76
2023/03/12 08:36:19;;;;;;;25.05;7.43;;;20.90;88.40;;;;;;5046586;28;20084;-77
2023/03/12 08:39:24;;;;;;;29.50;8.23;;;21.10;87.40;;;;;;5047415;28;20036;-76
2023/03/12 08:42:28;;;;;;;24.58;7.57;;;21.00;85.90;;;;;;5047551;28;20043;-77
2023/03/12 08:45:35;;;;;;;21.55;7.38;;;21.00;87.20;;;;;;5047379;28;20041;-77
2023/03/12 08:48:39;;;;;;;25.45;7.93;;;21.10;87.30;;;;;;5047377;28;20063;-77
2023/03/12 08:51:43;;;;;;;28.02;8.60;;;21.30;86.70;;;;;;5046445;28;20040;-76
2023/03/12 08:54:47;;;;;;;31.23;8.90;;;21.50;86.80;;;;;;5046007;28;20064;-76
2023/03/12 08:57:52;;;;;;;22.20;7.72;;;21.60;86.30;;;;;;5033707;28;20370;-77
2023/03/12 09:00:56;;;;;;;30.58;9.50;;;21.60;86.80;;;;;;5040220;28;20121;-77
2023/03/12 09:04:01;;;;;;;21.83;7.50;;;21.70;87.10;;;;;;5051252;28;20047;-77
2023/03/12 09:07:05;;;;;;;37.42;10.18;;;21.80;87.50;;;;;;5050752;28;20067;-76
2023/03/12 09:10:10;;;;;;;31.65;8.88;;;21.50;87.10;;;;;;5050181;28;20104;-75
2023/03/12 09:13:14;;;;;;;38.38;9.38;;;21.40;88.90;;;;;;5034501;28;20512;-77
2023/03/12 09:16:18;;;;;;;30.13;8.23;;;21.30;88.00;;;;;;5034502;28;20075;-77
2023/03/12 09:19:22;;;;;;;29.60;8.85;;;21.40;88.90;;;;;;5045727;28;20262;-76
2023/03/12 09:22:29;;;;;;;33.70;9.43;;;21.40;88.40;;;;;;5039261;28;20060;-77
2023/03/12 09:25:33;;;;;;;33.28;9.38;;;21.20;88.20;;;;;;5033660;28;20040;-77
2023/03/12 09:28:37;;;;;;;37.17;9.10;;;21.20;88.20;;;;;;5034557;28;20068;-77
2023/03/12 09:31:41;;;;;;;38.30;10.00;;;21.10;88.00;;;;;;5034564;28;20397;-76
2023/03/12 09:34:45;;;;;;;36.90;10.20;;;21.10;88.90;;;;;;5034450;28;20048;-77
2023/03/12 09:37:50;;;;;;;35.10;9.70;;;21.00;87.00;;;;;;5034144;28;20480;-77
2023/03/12 09:40:55;;;;;;;29.88;8.40;;;20.90;87.80;;;;;;5033416;28;20084;-76
2023/03/12 09:44:34;;;;;;;30.50;9.35;;;20.90;88.20;;;;;;5033635;28;20049;-77
2023/03/12 09:48:00;;;;;;;23.38;7.78;;;21.00;87.50;;;;;;5033682;28;20056;-77
2023/03/12 09:51:12;;;;;;;21.38;8.27;;;21.20;87.70;;;;;;5033410;28;20044;-76
2023/03/12 09:54:41;;;;;;;26.77;10.02;;;21.40;87.60;;;;;;5032471;28;20500;-77
2023/03/12 09:57:49;;;;;;;32.13;9.35;;;21.60;86.60;;;;;;5033358;28;20048;-77
2023/03/12 10:01:04;;;;;;;33.08;8.20;;;21.70;85.10;;;;;;5033468;28;20089;-76
2023/03/12 10:04:17;;;;;;;28.88;7.25;;;21.80;84.20;;;;;;5033109;28;20048;-76
2023/03/12 10:07:34;;;;;;;18.35;5.85;;;21.80;83.70;;;;;;5033410;28;20056;-77
2023/03/12 10:11:09;;;;;;;23.02;5.88;;;21.60;82.40;;;;;;5032749;28;20401;-77
2023/03/12 10:14:40;;;;;;;22.63;5.45;;;21.10;82.40;;;;;;5033061;28;20068;-77
2023/03/12 10:18:14;;;;;;;12.38;4.85;;;20.60;82.80;;;;;;5033315;28;20064;-77
2023/03/12 10:21:49;;;;;;;21.83;5.93;;;20.20;84.80;;;;;;5032915;28;20049;-77
2023/03/12 10:25:20;;;;;;;24.33;5.65;;;20.00;85.70;;;;;;5032943;28;20047;-78
2023/03/12 10:28:28;;;;;;;;;;;19.90;86.30;;;;;;5033093;28;20615;-77
2023/03/12 10:31:44;;;;;;;19.55;5.10;;;19.80;85.70;;;;;;5033077;28;19909;-77
2023/03/12 10:35:21;;;;;;;16.85;4.05;;;19.70;86.30;;;;;;5032727;28;20052;-78
2023/03/12 10:38:29;;;;;;;15.80;4.03;;;19.50;86.40;;;;;;5032476;28;20520;-77
2023/03/12 10:41:33;;;;;;;20.05;4.90;;;19.40;86.80;;;;;;5032540;28;20057;-77
2023/03/12 10:44:37;;;;;;;15.75;4.50;;;19.30;86.50;;;;;;5032042;28;20048;-77
2023/03/12 10:47:43;;;;;;;15.50;4.20;;;19.40;86.30;;;;;;5032069;28;20052;-77
2023/03/12 10:51:11;;;;;;;11.38;3.05;;;19.40;85.10;;;;;;5032339;28;20060;-78
2023/03/12 10:54:32;;;;;;;12.05;3.83;;;19.40;84.80;;;;;;5032145;28;20108;-78
2023/03/12 10:57:40;;;;;;;16.02;4.90;;;19.50;85.30;;;;;;5032325;28;20040;-77
2023/03/12 11:00:55;;;;;;;13.60;3.90;;;19.80;85.30;;;;;;5031854;28;20044;-78
2023/03/12 11:04:18;;;;;;;10.43;3.70;;;19.80;82.80;;;;;;5031996;28;20497;-78
2023/03/12 11:07:32;;;;;;;12.68;3.60;;;19.80;82.00;;;;;;5031806;28;20057;-77
2023/03/12 11:10:43;;;;;;;19.33;5.70;;;19.90;83.10;;;;;;5031055;28;20048;-78
2023/03/12 11:14:15;;;;;;;11.57;3.08;;;20.10;81.60;;;;;;5032042;28;20048;-78
2023/03/12 11:17:25;;;;;;;18.77;6.43;;;20.30;82.40;;;;;;5031703;28;20048;-78
2023/03/12 11:20:29;;;;;;;20.95;7.15;;;20.40;81.10;;;;;;5031596;28;20049;-77
2023/03/12 11:23:35;;;;;;;11.20;4.82;;;20.30;80.30;;;;;;5031539;28;20504;-77
2023/03/12 11:26:51;;;;;;;19.63;8.60;;;20.20;78.70;;;;;;5031429;28;20049;-77
2023/03/12 11:29:55;;;;;;;8.95;3.83;;;20.30;79.00;;;;;;5031323;28;20057;-78
2023/03/12 11:33:01;;;;;;;12.07;4.07;;;20.30;78.90;;;;;;5031552;28;20040;-78
2023/03/12 11:36:30;;;;;;;8.25;3.50;;;20.30;77.70;;;;;;5031689;28;20056;-78
2023/03/12 11:39:50;;;;;;;6.43;1.98;;;20.20;76.50;;;;;;5031301;28;20048;-77
2023/03/12 11:43:06;;;;;;;7.68;3.97;;;20.10;75.20;;;;;;5031580;28;20048;-77
2023/03/12 11:46:29;;;;;;;8.57;2.65;;;20.00;74.90;;;;;;5031442;28;20040;-78
2023/03/12 11:49:52;;;;;;;3.97;2.15;;;20.00;75.10;;;;;;5031252;28;20052;-78
2023/03/12 11:53:13;;;;;;;6.72;3.60;;;20.10;75.40;;;;;;5030951;28;20048;-78
2023/03/12 11:56:40;;;;;;;5.60;2.53;;;19.90;75.30;;;;;;5030878;28;20092;-78
2023/03/12 12:00:39;;;;;;;3.17;2.10;;;19.90;75.90;;;;;;5030710;28;20496;-78
2023/03/12 12:04:08;;;;;;;6.07;1.60;;;19.90;76.40;;;;;;5018563;28;20060;-77
2023/03/12 12:07:45;;;;;;;4.65;1.40;;;19.90;76.80;;;;;;5030777;28;20059;-77
2023/03/12 12:11:04;;;;;;;4.13;1.70;;;19.90;77.10;;;;;;5030660;28;20040;-77
2023/03/12 12:14:14;;;;;;;4.60;2.10;;;19.80;78.40;;;;;;5030773;28;20523;-78
2023/03/12 12:17:31;;;;;;;3.07;1.70;;;19.90;78.40;;;;;;5030884;28;20044;-78
2023/03/12 12:20:57;;;;;;;4.80;1.90;;;19.90;77.40;;;;;;5030354;28;20044;-78
2023/03/12 12:24:36;;;;;;;8.75;5.68;;;19.90;77.90;;;;;;5030747;28;20048;-77
2023/03/12 12:28:02;;;;;;;4.40;1.88;;;19.90;77.90;;;;;;5030263;28;20520;-78
2023/03/12 12:31:15;;;;;;;5.68;2.60;;;20.00;78.40;;;;;;5030645;28;20117;-78
2023/03/12 12:34:22;;;;;;;6.28;3.83;;;20.00;77.60;;;;;;5030877;28;20041;-78
2023/03/12 12:37:38;;;;;;;7.63;2.10;;;20.10;77.70;;;;;;5033896;28;20507;-78
2023/03/12 12:40:50;;;;;;;3.60;1.73;;;20.20;77.80;;;;;;5034497;28;20068;-77
2023/03/12 12:44:00;;;;;;;8.65;3.50;;;;;;;;;;5034445;28;20068;-78
2023/03/12 12:47:06;;;;;;;6.75;1.50;;;;;;;;;;5036783;28;20045;-77
2023/03/12 12:50:32;;;;;;;3.63;1.40;;;;;;;;;;5034663;28;20041;-76
2023/03/12 12:53:40;;;;;;;4.32;1.33;;;;;;;;;;5034357;28;20042;-77
2023/03/12 12:56:57;;;;;;;7.97;1.60;;;;;;;;;;5034505;28;20049;-78
2023/03/12 13:00:01;;;;;;;4.80;1.85;;;;;;;;;;5034428;28;20038;-78
2023/03/12 13:03:06;;;;;;;7.75;1.92;;;;;;;;;;5034505;28;20042;-78
2023/03/12 13:06:10;;;;;;;2.42;1.15;;;;;;;;;;5034342;28;20033;-77
2023/03/12 13:09:15;;;;;;;4.93;2.00;;;;;;;;;;5034036;28;20050;-77
2023/03/12 13:12:31;;;;;;;2.45;1.50;;;;;;;;;;5034270;28;20033;-77
2023/03/12 13:15:39;;;;;;;3.63;1.83;;;;;;;;;;5034267;28;20041;-77
2023/03/12 13:18:55;;;;;;;5.38;1.38;;;;;;;;;;5033677;28;20373;-77
2023/03/12 13:22:08;;;;;;;8.50;1.88;;;;;;;;;;5033777;28;20033;-76
2023/03/12 13:25:19;;;;;;;2.92;1.40;;;;;;;;;;5034127;28;20041;-77
2023/03/12 13:28:55;;;;;;;7.30;2.40;;;;;;;;;;5033665;28;20045;-79
2023/03/12 13:31:59;;;;;;;5.53;2.10;;;;;;;;;;5033746;28;20284;-77
2023/03/12 13:35:23;;;;;;;1.90;1.30;;;;;;;;;;5033432;28;20037;-77
2023/03/12 13:38:35;;;;;;;3.78;1.30;;;;;;;;;;5038653;28;20041;-76
2023/03/12 13:41:40;;;;;;;3.30;1.30;;;;;;;;;;5033454;28;20050;-77
2023/03/12 13:44:45;;;;;;;3.92;1.50;;;;;;;;;;5033636;28;20046;-77
2023/03/12 13:47:51;;;;;;;6.25;1.02;;;;;;;;;;5032861;28;20041;-77
2023/03/12 13:51:02;;;;;;;2.67;0.88;;;;;;;;;;5033376;28;20038;-77
2023/03/12 13:54:06;;;;;;;3.50;1.05;;;;;;;;;;5033395;28;20045;-76
2023/03/12 13:57:20;;;;;;;2.65;0.98;;;;;;;;;;5032504;28;20049;-76
2023/03/12 14:00:24;;;;;;;3.38;1.08;;;;;;;;;;5032987;28;20033;-77
2023/03/12 14:03:34;;;;;;;2.97;1.20;;;;;;;;;;5033434;28;20034;-77
2023/03/12 14:07:08;;;;;;;6.68;1.50;;;;;;;;;;5032753;28;20037;-77
2023/03/12 14:10:20;;;;;;;2.78;1.38;;;;;;;;;;5031294;28;20390;-77
2023/03/12 14:13:33;;;;;;;6.78;1.92;;;;;;;;;;5032270;28;20045;-77
2023/03/12 14:16:48;;;;;;;3.75;1.80;;;;;;;;;;5033009;28;20366;-77
2023/03/12 14:20:01;;;;;;;5.22;1.88;;;;;;;;;;5032576;28;20034;-78
2023/03/12 14:23:07;;;;;;;7.38;1.50;;;;;;;;;;5032623;28;20037;-77
2023/03/12 14:26:16;;;;;;;5.90;2.08;;;;;;;;;;5032393;28;20379;-77
2023/03/12 14:29:43;;;;;;;4.97;1.90;;;;;;;;;;5032682;28;20045;-77
2023/03/12 14:32:49;;;;;;;4.47;1.80;;;;;;;;;;5032994;28;20097;-77
2023/03/12 14:36:06;;;;;;;6.07;1.50;;;;;;;;;;5032494;28;20046;-77
2023/03/12 14:39:19;;;;;;;4.97;2.22;;;;;;;;;;5032118;28;20037;-77
2023/03/12 14:42:27;;;;;;;6.43;1.77;;;;;;;;;;5032312;28;20660;-76
2023/03/12 14:45:33;;;;;;;5.63;1.30;;;;;;;;;;5032293;28;20041;-77
2023/03/12 14:48:37;;;;;;;5.88;1.83;;;;;;;;;;5032143;28;20042;-77
2023/03/12 14:51:43;;;;;;;4.20;1.38;;;;;;;;;;5032269;28;20410;-77
2023/03/12 14:54:54;;;;;;;4.70;1.65;;;;;;;;;;5032194;28;20045;-77
2023/03/12 14:58:06;;;;;;;5.55;1.80;;;;;;;;;;5031906;28;20037;-77
2023/03/12 15:01:13;;;;;;;4.55;2.55;;;;;;;;;;5032704;28;20045;-76
2023/03/12 15:04:21;;;;;;;4.53;1.75;;;;;;;;;;5032002;28;20034;-77
2023/03/12 15:07:30;;;;;;;6.07;1.70;;;;;;;;;;5031857;28;20033;-77
2023/03/12 15:10:34;;;;;;;5.60;1.30;;;;;;;;;;5031907;28;20513;-78
2023/03/12 15:13:39;;;;;;;6.68;2.47;;;;;;;;;;5032082;28;20033;-76
2023/03/12 15:16:44;;;;;;;6.03;1.83;;;;;;;;;;5031487;28;20414;-77
2023/03/12 15:19:49;;;;;;;9.23;2.20;;;;;;;;;;5031799;28;20041;-77
2023/03/12 15:22:54;;;;;;;5.13;1.85;;;;;;;;;;5030971;28;20037;-77
2023/03/12 15:26:28;;;;;;;4.30;1.70;;;;;;;;;;5031457;28;20037;-77
2023/03/12 15:29:32;;;;;;;8.50;2.15;;;;;;;;;;5031607;28;20050;-77
2023/03/12 15:32:36;;;;;;;9.75;2.60;;;;;;;;;;5031404;28;20038;-77
2023/03/12 15:36:01;;;;;;;8.15;2.58;;;;;;;;;;5031542;28;20358;-78
2023/03/12 15:39:26;;;;;;;11.55;2.17;;;;;;;;;;5031366;28;20045;-77
2023/03/12 15:42:36;;;;;;;9.18;2.47;;;;;;;;;;5031497;28;20040;-77
2023/03/12 15:45:40;;;;;;;8.38;2.63;;;;;;;;;;5031321;28;20041;-77
2023/03/12 15:48:49;;;;;;;11.55;2.83;;;;;;;;;;5031044;28;20394;-78
2023/03/12 15:51:58;;;;;;;7.72;2.65;;;;;;;;;;5031496;28;20040;-78
2023/03/12 15:55:11;;;;;;;4.82;2.13;;;;;;;;;;5030932;28;20374;-78
2023/03/12 15:58:30;;;;;;;10.23;3.30;;;;;;;;;;5031153;28;20033;-78
2023/03/12 16:01:48;;;;;;;6.22;3.17;;;;;;;;;;5031077;28;20049;-77
2023/03/12 16:04:52;;;;;;;10.15;2.85;;;;;;;;;;5030961;28;20037;-76
2023/03/12 16:07:57;;;;;;;15.57;3.70;;;;;;;;;;5030837;28;20060;-77
2023/03/12 16:11:01;;;;;;;14.05;3.30;;;;;;;;;;5030490;28;20493;-77
2023/03/12 16:14:16;;;;;;;7.65;3.20;;;;;;;;;;5031081;28;20044;-78
2023/03/12 16:17:22;;;;;;;8.48;3.28;;;18.10;82.10;;;;;;5030839;28;20037;-78
2023/03/12 16:20:26;;;;;;;6.05;2.75;;;17.90;82.80;;;;;;5030526;28;20041;-77
2023/03/12 16:23:29;;;;;;;12.50;2.40;;;17.60;83.60;;;;;;5030733;28;20044;-78
2023/03/12 16:26:49;;;;;;;6.70;2.72;;;17.50;83.80;;;;;;5030572;28;20048;-77
2023/03/12 16:29:54;;;;;;;6.03;3.28;;;17.40;83.70;;;;;;5030888;28;20155;-78
2023/03/12 16:32:59;;;;;;;10.13;4.30;;;17.30;83.60;;;;;;5030737;28;20045;-77
2023/03/12 16:36:03;;;;;;;9.27;3.78;;;17.30;83.90;;;;;;5030673;28;20060;-78
2023/03/12 16:39:07;;;;;;;11.52;3.15;;;17.30;84.40;;;;;;5030374;28;20513;-78
2023/03/12 16:42:24;;;;;;;9.52;3.15;;;17.10;83.30;;;;;;5030457;28;20048;-77
2023/03/12 16:45:29;;;;;;;8.98;2.90;;;17.00;83.80;;;;;;5030298;28;20500;-78